Time;durP1;ratioP1;P1;durP2;ratioP2;P2;SDS_P1;SDS_P2;PMS_P1;PMS_P2;Temp;Humidity;BMP_temperature;BMP_pressure;BME280_temperature;BME280_humidity;BME280_pressure;Samples;Min_cycle;Max_cycle;Signal;HPM_P1;HPM_P2
2023/08/07 00:02:23;;;;;;;;;;;;;;;12.52;100.00;101530.31;5092616;28;19959;-71
2023/08/07 00:04:48;;;;;;;;;;;;;;;12.19;100.00;101538.59;5092190;28;19939;-70
2023/08/07 00:07:13;;;;;;;;;;;;;;;11.90;100.00;101534.75;5092304;28;19916;-71
2023/08/07 00:09:39;;;;;;;;;;;;;;;11.72;100.00;101529.16;5091817;28;20248;-72
2023/08/07 00:12:04;;;;;;;;;;;;;;;11.68;100.00;101527.72;5074180;28;19912;-71
2023/08/07 00:14:29;;;;;;;;;;;;;;;11.68;100.00;101526.88;5092552;28;19916;-72
2023/08/07 00:16:54;;;;;;;;;;;;;;;11.74;100.00;101531.69;5092029;28;19922;-71
2023/08/07 00:19:20;;;;;;;;;;;;;;;11.86;100.00;101521.81;5092484;28;20015;-72
2023/08/07 00:21:45;;;;;;;;;;;;;;;11.97;100.00;101527.06;5091716;28;19912;-72
2023/08/07 00:24:10;;;;;;;;;;;;;;;12.08;100.00;101520.84;5092335;28;19920;-72
2023/08/07 00:26:35;;;;;;;;;;;;;;;12.20;100.00;101530.44;5092304;28;19920;-72
2023/08/07 00:29:01;;;;;;;;;;;;;;;12.32;100.00;101545.38;5094175;28;19923;-72
2023/08/07 00:31:26;;;;;;;;;;;;;;;12.30;100.00;101542.00;5096057;28;20398;-72
2023/08/07 00:33:54;;;;;;;;;;;;;;;12.13;100.00;101546.13;5095619;28;19920;-72
2023/08/07 00:36:19;;;;;;;;;;;;;;;11.95;100.00;101553.03;5095838;28;20000;-71
2023/08/07 00:38:44;;;;;;;;;;;;;;;11.78;100.00;101543.78;5095527;28;19921;-73
2023/08/07 00:41:10;;;;;;;;;;;;;;;11.63;100.00;101537.94;5095450;28;19916;-73
2023/08/07 00:43:35;;;;;;;;;;;;;;;11.55;100.00;101535.88;5095449;28;19967;-74
2023/08/07 00:46:01;;;;;;;;;;;;;;;11.51;100.00;101539.78;5095938;28;19917;-72
2023/08/07 00:48:26;;;;;;;;;;;;;;;11.56;100.00;101545.56;5077562;28;19958;-72
2023/08/07 00:50:53;;;;;;;;;;;;;;;11.65;100.00;101541.28;5076817;28;19920;-72
2023/08/07 00:53:18;;;;;;;;;;;;;;;11.73;100.00;101548.66;5095269;28;19919;-73
2023/08/07 00:55:44;;;;;;;;;;;;;;;11.78;100.00;101549.13;5095195;28;19916;-72
2023/08/07 00:58:09;;;;;;;;;;;;;;;11.79;100.00;101540.13;5095121;28;20252;-72
2023/08/07 01:00:35;;;;;;;;;;;;;;;11.79;100.00;101537.47;5095219;28;19912;-72
2023/08/07 01:03:01;;;;;;;;;;;;;;;11.89;100.00;101542.88;5094983;28;19916;-72
2023/08/07 01:05:26;;;;;;;;;;;;;;;11.96;100.00;101542.25;5095869;28;19974;-73
2023/08/07 01:07:54;;;;;;;;;;;;;;;12.04;100.00;101544.25;5076628;28;20085;-72
2023/08/07 01:10:22;;;;;;;;;;;;;;;12.15;100.00;101541.53;5076664;28;19959;-72
2023/08/07 01:12:55;;;;;;;;;;;;;;;12.27;100.00;101531.59;5094627;28;19912;-72
2023/08/07 01:15:25;;;;;;;;;;;;;;;12.35;100.00;101534.44;5077315;28;19912;-72
2023/08/07 01:17:52;;;;;;;;;;;;;;;12.40;100.00;101533.19;5094857;28;20007;-73
2023/08/07 01:20:17;;;;;;;;;;;;;;;12.49;100.00;101546.56;5094954;28;19912;-71
2023/08/07 01:22:42;;;;;;;;;;;;;;;12.55;100.00;101544.34;5094306;28;20002;-73
2023/08/07 01:25:08;;;;;;;;;;;;;;;12.57;100.00;101542.38;5094944;28;19963;-74
2023/08/07 01:27:46;;;;;;;;;;;;;;;12.59;100.00;101546.63;5094926;28;20367;-73
2023/08/07 01:30:16;;;;;;;;;;;;;;;12.63;100.00;101541.84;5094754;28;20356;-72
2023/08/07 01:33:00;;;;;;;;;;;;;;;12.58;100.00;101549.44;5094279;28;19912;-73
2023/08/07 01:35:29;;;;;;;;;;;;;;;12.43;100.00;101564.94;5094733;28;19965;-73
2023/08/07 01:37:55;;;;;;;;;;;;;;;12.29;100.00;101558.16;5094108;28;19995;-72
2023/08/07 01:40:21;;;;;;;;;;;;;;;12.19;100.00;101542.09;5094264;28;19918;-72
2023/08/07 01:42:47;;;;;;;;;;;;;;;12.22;100.00;101539.16;5094130;28;20002;-71
2023/08/07 01:45:12;;;;;;;;;;;;;;;12.32;100.00;101553.38;5094491;28;19920;-72
2023/08/07 01:47:37;;;;;;;;;;;;;;;12.39;100.00;101551.03;5094357;28;19916;-72
2023/08/07 01:50:03;;;;;;;;;;;;;;;12.43;100.00;101546.28;5094154;28;20241;-72
2023/08/07 01:52:28;;;;;;;;;;;;;;;12.46;100.00;101548.66;5094290;28;20355;-72
2023/08/07 01:54:53;;;;;;;;;;;;;;;12.52;100.00;101550.81;5093648;28;19916;-73
2023/08/07 01:57:19;;;;;;;;;;;;;;;12.53;100.00;101552.50;5094037;28;19912;-72
2023/08/07 01:59:44;;;;;;;;;;;;;;;12.52;100.00;101548.13;5093975;28;19916;-72
2023/08/07 02:02:10;;;;;;;;;;;;;;;12.53;100.00;101545.31;5094130;28;19912;-72
2023/08/07 02:04:35;;;;;;;;;;;;;;;12.56;100.00;101559.41;5094232;28;19916;-72
2023/08/07 02:07:00;;;;;;;;;;;;;;;12.67;100.00;101551.28;5093362;28;19918;-72
2023/08/07 02:09:25;;;;;;;;;;;;;;;12.70;100.00;101554.53;5093438;28;19963;-72
2023/08/07 02:11:50;;;;;;;;;;;;;;;12.76;100.00;101549.63;5093672;28;19921;-72
2023/08/07 02:14:16;;;;;;;;;;;;;;;12.74;100.00;101549.75;5093662;28;19922;-72
2023/08/07 02:16:41;;;;;;;;;;;;;;;12.76;100.00;101544.28;5093955;28;20007;-72
2023/08/07 02:19:06;;;;;;;;;;;;;;;12.81;100.00;101548.25;5093356;28;19924;-72
2023/08/07 02:21:31;;;;;;;;;;;;;;;12.83;100.00;101548.09;5093940;28;20301;-72
2023/08/07 02:23:57;;;;;;;;;;;;;;;12.87;100.00;101549.53;5093433;28;19916;-72
2023/08/07 02:26:22;;;;;;;;;;;;;;;12.88;100.00;101559.22;5093677;28;20028;-72
2023/08/07 02:28:47;;;;;;;;;;;;;;;12.90;100.00;101559.06;5093638;28;19916;-72
2023/08/07 02:31:12;;;;;;;;;;;;;;;12.87;100.00;101561.03;5093239;28;20006;-73
2023/08/07 02:33:38;;;;;;;;;;;;;;;12.85;100.00;101559.47;5075373;28;19951;-72
2023/08/07 02:36:03;;;;;;;;;;;;;;;12.73;100.00;101556.06;5093174;28;19942;-71
2023/08/07 02:38:28;;;;;;;;;;;;;;;12.58;100.00;101566.28;5093744;28;19916;-72
2023/08/07 02:40:54;;;;;;;;;;;;;;;12.47;100.00;101580.56;5093133;28;19916;-72
2023/08/07 02:43:19;;;;;;;;;;;;;;;12.34;100.00;101569.25;5093757;28;19916;-73
2023/08/07 02:45:44;;;;;;;;;;;;;;;12.22;100.00;101573.00;5093372;28;20379;-72
2023/08/07 02:48:09;;;;;;;;;;;;;;;12.15;100.00;101581.53;5092817;28;20371;-73
2023/08/07 02:50:35;;;;;;;;;;;;;;;12.13;100.00;101570.13;5074634;28;19916;-71
2023/08/07 02:53:00;;;;;;;;;;;;;;;12.14;100.00;101566.50;5092393;28;19927;-73
2023/08/07 02:55:26;;;;;;;;;;;;;;;12.18;100.00;101569.72;5093341;28;19919;-72
2023/08/07 02:57:51;;;;;;;;;;;;;;;12.25;100.00;101564.72;5093308;28;19916;-72
2023/08/07 03:00:16;;;;;;;;;;;;;;;12.27;100.00;101574.31;5092748;28;20012;-73
2023/08/07 03:02:42;;;;;;;;;;;;;;;12.30;100.00;101570.50;5074884;28;19916;-72
2023/08/07 03:05:07;;;;;;;;;;;;;;;12.29;100.00;101575.00;5092766;28;19916;-72
2023/08/07 03:07:32;;;;;;;;;;;;;;;12.23;100.00;101566.69;5092793;28;19927;-73
2023/08/07 03:09:59;;;;;;;;;;;;;;;12.14;100.00;101563.00;5091591;28;20557;-72
2023/08/07 03:12:25;;;;;;;;;;;;;;;12.09;100.00;101570.53;5093045;28;19924;-73
2023/08/07 03:14:50;;;;;;;;;;;;;;;12.10;100.00;101572.22;5093303;28;19923;-72
2023/08/07 03:17:15;;;;;;;;;;;;;;;12.16;100.00;101569.03;5092483;28;19948;-72
2023/08/07 03:19:42;;;;;;;;;;;;;;;12.19;100.00;101567.94;5092967;28;19981;-72
2023/08/07 03:22:07;;;;;;;;;;;;;;;12.25;100.00;101580.75;5092711;28;20348;-72
2023/08/07 03:24:32;;;;;;;;;;;;;;;12.26;100.00;101585.94;5092426;28;19920;-73
2023/08/07 03:26:58;;;;;;;;;;;;;;;12.29;100.00;101571.50;5074367;28;19961;-74
2023/08/07 03:29:23;;;;;;;;;;;;;;;12.31;100.00;101570.38;5092764;28;19961;-72
2023/08/07 03:31:48;;;;;;;;;;;;;;;12.33;100.00;101568.44;5092853;28;20018;-72
2023/08/07 03:34:13;;;;;;;;;;;;;;;12.32;100.00;101571.22;5092416;28;19916;-73
2023/08/07 03:36:39;;;;;;;;;;;;;;;12.33;100.00;101563.09;5092453;28;19912;-72
2023/08/07 03:39:04;;;;;;;;;;;;;;;12.36;100.00;101567.31;5092060;28;19916;-73
2023/08/07 03:41:29;;;;;;;;;;;;;;;12.40;100.00;101563.38;5092683;28;19917;-73
2023/08/07 03:43:55;;;;;;;;;;;;;;;12.46;100.00;101570.03;5092708;28;19924;-72
2023/08/07 03:46:20;;;;;;;;;;;;;;;12.50;100.00;101558.94;5091887;28;19916;-72
2023/08/07 03:48:46;;;;;;;;;;;;;;;12.58;100.00;101562.78;5092511;28;19917;-73
2023/08/07 03:51:11;;;;;;;;;;;;;;;12.59;100.00;101561.81;5092172;28;19938;-73
2023/08/07 03:53:36;;;;;;;;;;;;;;;12.64;100.00;101556.88;5092650;28;19912;-73
2023/08/07 03:56:02;;;;;;;;;;;;;;;12.68;100.00;101552.97;5073861;28;20002;-74
2023/08/07 03:58:27;;;;;;;;;;;;;;;12.73;100.00;101553.41;5092559;28;20031;-73
2023/08/07 04:00:52;;;;;;;;;;;;;;;12.80;100.00;101559.88;5092306;28;20041;-72
2023/08/07 04:03:21;;;;;;;;;;;;;;;12.83;100.00;101554.28;5094658;28;19916;-73
2023/08/07 04:05:46;;;;;;;;;;;;;;;12.85;100.00;101554.13;5096625;28;19980;-73
2023/08/07 04:08:11;;;;;;;;;;;;;;;12.86;100.00;101562.00;5096095;28;20414;-72
2023/08/07 04:10:36;;;;;;;;;;;;;;;12.91;100.00;101558.09;5096306;28;19913;-73
2023/08/07 04:13:01;;;;;;;;;;;;;;;12.94;100.00;101560.50;5077765;28;20046;-72
2023/08/07 04:15:27;;;;;;;;;;;;;;;12.97;100.00;101560.22;5095879;28;19916;-73
2023/08/07 04:17:52;;;;;;;;;;;;;;;12.99;100.00;101559.09;5096290;28;19999;-73
2023/08/07 04:20:17;;;;;;;;;;;;;;;12.99;100.00;101563.63;5095915;28;19938;-73
2023/08/07 04:22:44;;;;;;;;;;;;;;;13.00;100.00;101565.28;5096409;28;20244;-72
2023/08/07 04:25:09;;;;;;;;;;;;;;;13.01;100.00;101565.16;5095675;28;19919;-73
2023/08/07 04:27:35;;;;;;;;;;;;;;;13.04;100.00;101570.22;5096056;28;19916;-74
2023/08/07 04:30:00;;;;;;;;;;;;;;;13.03;100.00;101571.22;5095952;28;19967;-74
2023/08/07 04:32:25;;;;;;;;;;;;;;;13.02;100.00;101577.53;5095873;28;20344;-73
2023/08/07 04:34:50;;;;;;;;;;;;;;;13.00;100.00;101575.97;5095708;28;20421;-73
2023/08/07 04:37:16;;;;;;;;;;;;;;;13.00;100.00;101589.31;5095178;28;19924;-73
2023/08/07 04:39:41;;;;;;;;;;;;;;;13.01;100.00;101581.16;5095557;28;19923;-73
2023/08/07 04:42:06;;;;;;;;;;;;;;;13.01;100.00;101585.69;5095513;28;19927;-75
2023/08/07 04:44:31;;;;;;;;;;;;;;;13.03;100.00;101597.06;5095718;28;20461;-73
2023/08/07 04:46:57;;;;;;;;;;;;;;;13.01;100.00;101597.19;5095693;28;20379;-73
2023/08/07 04:49:22;;;;;;;;;;;;;;;13.00;100.00;101605.34;5095164;28;20322;-72
2023/08/07 04:51:47;;;;;;;;;;;;;;;13.00;100.00;101589.31;5095270;28;19923;-72
2023/08/07 04:54:12;;;;;;;;;;;;;;;12.99;100.00;101596.50;5095163;28;19927;-73
2023/08/07 04:56:38;;;;;;;;;;;;;;;12.99;100.00;101603.69;5095565;28;20268;-72
2023/08/07 04:59:03;;;;;;;;;;;;;;;12.99;100.00;101599.16;5095572;28;19967;-73
2023/08/07 05:01:28;;;;;;;;;;;;;;;12.98;100.00;101594.81;5095027;28;20011;-72
2023/08/07 05:03:53;;;;;;;;;;;;;;;12.98;100.00;101593.97;5095352;28;20015;-72
2023/08/07 05:06:19;;;;;;;;;;;;;;;13.01;100.00;101593.69;5095234;28;19944;-73
2023/08/07 05:08:44;;;;;;;;;;;;;;;13.00;100.00;101590.19;5095334;28;19993;-73
2023/08/07 05:11:09;;;;;;;;;;;;;;;13.02;100.00;101606.91;5095180;28;20328;-72
2023/08/07 05:13:35;;;;;;;;;;;;;;;13.05;100.00;101606.63;5094191;28;19916;-72
2023/08/07 05:16:00;;;;;;;;;;;;;;;13.05;100.00;101608.47;5094896;28;19922;-72
2023/08/07 05:18:25;;;;;;;;;;;;;;;13.05;100.00;101606.63;5094378;28;19920;-72
2023/08/07 05:20:50;;;;;;;;;;;;;;;13.09;100.00;101614.38;5094825;28;19916;-71
2023/08/07 05:23:15;;;;;;;;;;;;;;;13.12;100.00;101616.78;5094651;28;19923;-72
2023/08/07 05:25:41;;;;;;;;;;;;;;;13.16;100.00;101612.84;5095337;28;19916;-72
2023/08/07 05:28:06;;;;;;;;;;;;;;;13.17;100.00;101622.56;5094853;28;20002;-72
2023/08/07 05:30:32;;;;;;;;;;;;;;;13.18;100.00;101614.41;5094361;28;20384;-73
2023/08/07 05:32:57;;;;;;;;;;;;;;;13.24;100.00;101615.66;5094864;28;20335;-73
2023/08/07 05:35:23;;;;;;;;;;;;;;;13.28;100.00;101626.94;5094562;28;20018;-73
2023/08/07 05:37:48;;;;;;;;;;;;;;;13.32;100.00;101617.69;5094635;28;19912;-73
2023/08/07 05:40:13;;;;;;;;;;;;;;;13.37;100.00;101620.78;5094704;28;19951;-73
2023/08/07 05:42:40;;;;;;;;;;;;;;;13.39;100.00;101630.38;5094767;28;19962;-73
2023/08/07 05:45:06;;;;;;;;;;;;;;;13.39;100.00;101625.03;5076476;28;20337;-73
2023/08/07 05:47:32;;;;;;;;;;;;;;;13.44;100.00;101632.63;5094086;28;19951;-73
2023/08/07 05:49:57;;;;;;;;;;;;;;;13.48;100.00;101628.69;5094453;28;19915;-73
2023/08/07 05:52:22;;;;;;;;;;;;;;;13.52;100.00;101631.94;5094064;28;19923;-73
2023/08/07 05:54:48;;;;;;;;;;;;;;;13.61;100.00;101632.94;5094610;28;20266;-73
2023/08/07 05:57:13;;;;;;;;;;;;;;;13.68;100.00;101639.41;5094408;28;19916;-72
2023/08/07 05:59:40;;;;;;;;;;;;;;;13.72;100.00;101646.19;5094188;28;19916;-73
2023/08/07 06:02:05;;;;;;;;;;;;;;;13.70;100.00;101637.44;5094130;28;19959;-71
2023/08/07 06:04:31;;;;;;;;;;;;;;;13.71;100.00;101631.94;5093482;28;20039;-72
2023/08/07 06:06:56;;;;;;;;;;;;;;;13.73;100.00;101645.16;5094121;28;19942;-73
2023/08/07 06:09:21;;;;;;;;;;;;;;;13.72;100.00;101644.34;5093703;28;19916;-74
2023/08/07 06:11:47;;;;;;;;;;;;;;;13.73;100.00;101650.53;5094106;28;19916;-73
2023/08/07 06:14:12;;;;;;;;;;;;;;;13.75;100.00;101652.06;5094101;28;19923;-72
2023/08/07 06:16:37;;;;;;;;;;;;;;;13.79;100.00;101654.47;5093314;28;19924;-73
2023/08/07 06:19:03;;;;;;;;;;;;;;;13.79;100.00;101655.31;5094032;28;19974;-73
2023/08/07 06:21:28;;;;;;;;;;;;;;;13.82;100.00;101662.22;5093518;28;19939;-72
2023/08/07 06:23:54;;;;;;;;;;;;;;;13.81;100.00;101666.72;5093845;28;19962;-73
2023/08/07 06:26:19;;;;;;;;;;;;;;;13.73;100.00;101670.09;5093011;28;19969;-73
2023/08/07 06:28:44;;;;;;;;;;;;;;;13.73;100.00;101659.41;5075255;28;20257;-73
2023/08/07 06:31:10;;;;;;;;;;;;;;;13.81;100.00;101661.38;5093677;28;19923;-72
2023/08/07 06:33:36;;;;;;;;;;;;;;;13.85;100.00;101665.47;5092976;28;20369;-72
2023/08/07 06:36:02;;;;;;;;;;;;;;;13.81;100.00;101673.88;5093656;28;19917;-73
2023/08/07 06:38:27;;;;;;;;;;;;;;;13.79;100.00;101673.19;5093137;28;20302;-72
2023/08/07 06:40:52;;;;;;;;;;;;;;;13.89;100.00;101674.03;5093576;28;19920;-72
2023/08/07 06:43:17;;;;;;;;;;;;;;;14.12;100.00;101674.59;5093601;28;19916;-73
2023/08/07 06:45:43;;;;;;;;;;;;;;;14.42;100.00;101673.59;5074971;28;19927;-72
2023/08/07 06:48:08;;;;;;;;;;;;;;;14.70;100.00;101678.19;5093504;28;19916;-73
2023/08/07 06:50:33;;;;;;;;;;;;;;;14.87;100.00;101676.56;5092693;28;20236;-74
2023/08/07 06:52:59;;;;;;;;;;;;;;;14.94;100.00;101675.84;5093472;28;19916;-73
2023/08/07 06:55:24;;;;;;;;;;;;;;;14.95;100.00;101676.69;5093071;28;20193;-74
2023/08/07 06:57:49;;;;;;;;;;;;;;;14.88;100.00;101687.13;5093439;28;19912;-73
2023/08/07 07:00:15;;;;;;;;;;;;;;;14.94;100.00;101689.25;5093335;28;19919;-73
2023/08/07 07:02:40;;;;;;;;;;;;;;;14.86;100.00;101694.50;5092611;28;20309;-73
2023/08/07 07:05:05;;;;;;;;;;;;;;;14.83;100.00;101693.94;5093321;28;19923;-73
2023/08/07 07:07:31;;;;;;;;;;;;;;;14.70;100.00;101691.59;5092695;28;19920;-73
2023/08/07 07:09:57;;;;;;;;;;;;;;;14.66;100.00;101685.69;5093132;28;20260;-72
2023/08/07 07:12:23;;;;;;;;;;;;;;;14.68;100.00;101693.56;5092773;28;19946;-73
2023/08/07 07:14:48;;;;;;;;;;;;;;;14.68;100.00;101702.44;5092395;28;20344;-73
2023/08/07 07:17:13;;;;;;;;;;;;;;;14.77;100.00;101703.41;5093121;28;19916;-73
2023/08/07 07:19:39;;;;;;;;;;;;;;;14.71;100.00;101702.16;5092759;28;19916;-73
2023/08/07 07:22:04;;;;;;;;;;;;;;;14.60;100.00;101711.16;5093017;28;19938;-74
2023/08/07 07:24:29;;;;;;;;;;;;;;;14.66;100.00;101700.88;5092514;28;19966;-73
2023/08/07 07:26:55;;;;;;;;;;;;;;;14.79;100.00;101709.44;5092924;28;19948;-73
2023/08/07 07:29:20;;;;;;;;;;;;;;;14.88;100.00;101707.75;5074829;28;20003;-72
2023/08/07 07:31:46;;;;;;;;;;;;;;;15.04;100.00;101716.00;5092356;28;19923;-72
2023/08/07 07:34:11;;;;;;;;;;;;;;;15.23;100.00;101711.56;5092824;28;20305;-73
2023/08/07 07:36:37;;;;;;;;;;;;;;;15.44;100.00;101717.50;5092171;28;20003;-73
2023/08/07 07:39:02;;;;;;;;;;;;;;;15.63;100.00;101713.88;5096978;28;19951;-73
2023/08/07 07:41:28;;;;;;;;;;;;;;;15.74;100.00;101718.16;5078763;28;19916;-73
2023/08/07 07:43:53;;;;;;;;;;;;;;;15.75;100.00;101722.56;5097467;28;20007;-74
2023/08/07 07:46:18;;;;;;;;;;;;;;;15.79;100.00;101726.63;5109380;28;20006;-73
2023/08/07 07:48:43;;;;;;;;;;;;;;;15.67;100.00;101723.31;5113123;28;19927;-72
2023/08/07 07:51:09;;;;;;;;;;;;;;;15.73;100.00;101723.69;5102341;28;19920;-71
2023/08/07 07:53:34;;;;;;;;;;;;;;;15.85;100.00;101726.03;5104093;28;19931;-74
2023/08/07 07:55:59;;;;;;;;;;;;;;;15.99;100.00;101719.28;5103805;28;19927;-74
2023/08/07 07:58:25;;;;;;;;;;;;;;;16.11;100.00;101733.31;5084391;28;20063;-73
2023/08/07 08:00:53;;;;;;;;;;;;;;;16.19;100.00;101728.03;5101196;28;19927;-74
2023/08/07 08:03:19;;;;;;;;;;;;;;;16.32;100.00;101726.81;5093953;28;19924;-73
2023/08/07 08:05:44;;;;;;;;;;;;;;;16.54;100.00;101742.41;5094996;28;19912;-72
2023/08/07 08:08:10;;;;;;;;;;;;;;;16.72;100.00;101738.84;5102958;28;20366;-71
2023/08/07 08:10:35;;;;;;;;;;;;;;;16.77;100.00;101755.34;5086064;28;19931;-72
2023/08/07 08:13:01;;;;;;;;;;;;;;;16.77;100.00;101762.56;5102863;28;19921;-74
2023/08/07 08:15:26;;;;;;;;;;;;;;;16.44;100.00;101752.41;5102097;28;19927;-73
2023/08/07 08:17:51;;;;;;;;;;;;;;;16.13;100.00;101757.34;5103924;28;20592;-72
2023/08/07 08:20:18;;;;;;;;;;;;;;;16.17;100.00;101759.56;5108321;28;19916;-72
2023/08/07 08:22:44;;;;;;;;;;;;;;;16.31;100.00;101762.69;5110235;28;19920;-72
2023/08/07 08:25:09;;;;;;;;;;;;;;;16.54;100.00;101766.59;5102753;28;20006;-72
2023/08/07 08:27:35;;;;;;;;;;;;;;;16.82;100.00;101766.44;5107174;28;20010;-72
2023/08/07 08:30:00;;;;;;;;;;;;;;;17.04;100.00;101770.47;5113838;28;19920;-72
2023/08/07 08:32:26;;;;;;;;;;;;;;;17.36;100.00;101777.06;5103752;28;19920;-70
2023/08/07 08:34:51;;;;;;;;;;;;;;;17.58;100.00;101785.53;5100045;28;19937;-72
2023/08/07 08:37:16;;;;;;;;;;;;;;;17.84;100.00;101773.84;5106395;28;19931;-72
2023/08/07 08:39:41;;;;;;;;;;;;;;;18.00;100.00;101775.75;5104166;28;19916;-70
2023/08/07 08:42:10;;;;;;;;;;;;;;;18.18;100.00;101778.31;5087613;28;19966;-71
2023/08/07 08:44:37;;;;;;;;;;;;;;;18.15;100.00;101780.34;5106479;28;20418;-71
2023/08/07 08:47:02;;;;;;;;;;;;;;;18.09;100.00;101799.88;5104328;28;19912;-70
2023/08/07 08:49:30;;;;;;;;;;;;;;;18.09;100.00;101788.22;5100627;28;19916;-72
2023/08/07 08:51:56;;;;;;;;;;;;;;;18.29;100.00;101796.84;5093185;28;19916;-71
2023/08/07 08:54:21;;;;;;;;;;;;;;;18.45;100.00;101791.47;5092741;28;20216;-73
2023/08/07 08:56:46;;;;;;;;;;;;;;;18.48;100.00;101795.66;5092363;28;19973;-71
2023/08/07 08:59:12;;;;;;;;;;;;;;;18.41;100.00;101800.06;5092502;28;19923;-78
2023/08/07 09:01:38;;;;;;;;;;;;;;;18.54;96.44;101791.47;5092226;28;19973;-75
2023/08/07 09:04:04;;;;;;;;;;;;;;;18.49;100.00;101800.88;5092270;28;19920;-79
2023/08/07 09:06:31;;;;;;;;;;;;;;;18.69;99.76;101800.56;5092890;28;19920;-80
2023/08/07 09:08:57;;;;;;;;;;;;;;;18.85;99.88;101805.09;5085555;28;19942;-79
2023/08/07 09:11:23;;;;;;;;;;;;;;;18.89;100.00;101801.09;5104072;28;19924;-79
2023/08/07 09:13:49;;;;;;;;;;;;;;;19.31;94.14;101797.25;5105320;28;19930;-80
2023/08/07 09:16:14;;;;;;;;;;;;;;;19.77;96.71;101801.16;5107956;28;20379;-76
2023/08/07 09:18:40;;;;;;;;;;;;;;;20.29;79.36;101813.16;5112703;28;20251;-75
2023/08/07 09:21:05;;;;;;;;;;;;;;;20.61;71.46;101807.50;5112714;28;19920;-77
2023/08/07 09:23:30;;;;;;;;;;;;;;;21.06;65.88;101804.06;5112632;28;19916;-81
2023/08/07 09:26:00;;;;;;;;;;;;;;;21.40;63.26;101808.94;5116572;28;20002;-77
2023/08/07 09:28:26;;;;;;;;;;;;;;;21.48;58.02;101811.56;5112524;28;19926;-72
2023/08/07 09:30:52;;;;;;;;;;;;;;;21.78;62.91;101818.81;5109141;28;20007;-72
2023/08/07 09:33:23;;;;;;;;;;;;;;;22.27;59.04;101815.41;5084868;28;19927;-72
2023/08/07 09:35:49;;;;;;;;;;;;;;;22.17;59.67;101804.88;5111696;28;19916;-73
2023/08/07 09:38:14;;;;;;;;;;;;;;;22.05;58.18;101811.00;5111195;28;19923;-74
2023/08/07 09:40:42;;;;;;;;;;;;;;;22.25;58.71;101822.06;5112102;28;19962;-72
2023/08/07 09:43:07;;;;;;;;;;;;;;;22.45;57.82;101812.28;5103412;28;20036;-73
2023/08/07 09:45:34;;;;;;;;;;;;;;;22.27;56.32;101828.13;5095253;28;19924;-71
2023/08/07 09:48:00;;;;;;;;;;;;;;;22.05;56.87;101827.25;5093730;28;20380;-71
2023/08/07 09:50:26;;;;;;;;;;;;;;;21.80;58.02;101828.44;5076141;28;19923;-71
2023/08/07 09:52:52;;;;;;;;;;;;;;;22.19;60.93;101829.09;5093933;28;20411;-72
2023/08/07 09:55:17;;;;;;;;;;;;;;;22.19;55.26;101834.50;5094352;28;19955;-71
2023/08/07 09:57:45;;;;;;;;;;;;;;;22.04;56.27;101841.84;5094401;28;19920;-72
2023/08/07 10:00:15;;;;;;;;;;;;;;;21.67;58.67;101833.69;5092273;28;19927;-71
2023/08/07 10:02:40;;;;;;;;;;;;;;;21.64;60.51;101836.78;5094235;28;19928;-71
2023/08/07 10:05:06;;;;;;;;;;;;;;;21.55;63.41;101833.31;5093733;28;19916;-71
2023/08/07 10:07:31;;;;;;;;;;;;;;;20.59;62.52;101836.59;5094139;28;19965;-71
2023/08/07 10:09:59;;;;;;;;;;;;;;;20.25;78.80;101837.00;5093245;28;19916;-72
2023/08/07 10:12:25;;;;;;;;;;;;;;;20.31;68.26;101849.81;5094145;28;19920;-71
2023/08/07 10:14:51;;;;;;;;;;;;;;;20.72;73.04;101838.72;5093596;28;19955;-72
2023/08/07 10:17:16;;;;;;;;;;;;;;;21.01;64.25;101841.69;5093871;28;19943;-71
2023/08/07 10:19:43;;;;;;;;;;;;;;;21.48;62.92;101845.91;5093906;28;20316;-71
2023/08/07 10:22:08;;;;;;;;;;;;;;;21.51;64.95;101844.72;5093452;28;19916;-71
2023/08/07 10:24:35;;;;;;;;;;;;;;;21.55;63.20;101856.88;5093524;28;19920;-71
2023/08/07 10:27:00;;;;;;;;;;;;;;;21.37;58.09;101852.63;5093311;28;20006;-71
2023/08/07 10:29:27;;;;;;;;;;;;;;;21.46;66.00;101858.78;5093498;28;19924;-71
2023/08/07 10:31:53;;;;;;;;;;;;;;;21.75;62.70;101857.13;5093052;28;19916;-75
2023/08/07 10:34:18;;;;;;;;;;;;;;;21.75;60.16;101851.69;5093314;28;19916;-70
2023/08/07 10:36:44;;;;;;;;;;;;;;;21.97;59.93;101858.00;5093396;28;19927;-71
2023/08/07 10:39:10;;;;;;;;;;;;;;;22.09;64.30;101851.06;5093345;28;19916;-71
2023/08/07 10:41:39;;;;;;;;;;;;;;;21.46;58.49;101854.19;5093607;28;19965;-71
2023/08/07 10:44:05;;;;;;;;;;;;;;;21.58;59.76;101842.94;5092941;28;19923;-70
2023/08/07 10:46:46;;;;;;;;;;;;;;;21.30;61.83;101854.38;5093352;28;19927;-72
2023/08/07 10:49:29;;;;;;;;;;;;;;;21.59;64.32;101858.19;5092803;28;19916;-71
2023/08/07 10:51:55;;;;;;;;;;;;;;;21.74;61.45;101863.56;5092912;28;19923;-73
2023/08/07 10:54:20;;;;;;;;;;;;;;;21.81;61.30;101865.34;5093202;28;19924;-71
2023/08/07 10:56:51;;;;;;;;;;;;;;;21.39;59.99;101857.84;5093103;28;20053;-71
2023/08/07 10:59:17;;;;;;;;;;;;;;;21.82;58.99;101855.34;5092486;28;20286;-71
2023/08/07 11:01:42;;;;;;;;;;;;;;;21.97;56.64;101850.72;5093157;28;20007;-70
2023/08/07 11:04:12;;;;;;;;;;;;;;;22.10;62.27;101857.34;5092635;28;19921;-71
2023/08/07 11:06:37;;;;;;;;;;;;;;;22.01;58.51;101851.19;5092945;28;19920;-71
2023/08/07 11:09:04;;;;;;;;;;;;;;;22.22;60.03;101857.69;5092579;28;19934;-71
2023/08/07 11:11:39;;;;;;;;;;;;;;;22.54;59.12;101867.19;5074400;28;20024;-70
2023/08/07 11:14:05;;;;;;;;;;;;;;;22.13;55.60;101865.91;5092510;28;19916;-71
2023/08/07 11:16:30;;;;;;;;;;;;;;;22.30;52.62;101868.41;5074618;28;19927;-71
2023/08/07 11:18:56;;;;;;;;;;;;;;;22.34;51.42;101869.72;5093261;28;20359;-70
2023/08/07 11:21:21;;;;;;;;;;;;;;;22.19;50.57;101864.31;5074701;28;20271;-70
2023/08/07 11:23:47;;;;;;;;;;;;;;;22.20;51.37;101866.00;5092733;28;19959;-71
2023/08/07 11:26:12;;;;;;;;;;;;;;;20.86;54.75;101863.28;5092342;28;20325;-71
2023/08/07 11:28:37;;;;;;;;;;;;;;;20.96;56.13;101859.28;5092997;28;20388;-71
2023/08/07 11:31:02;;;;;;;;;;;;;;;21.59;56.40;101872.53;5092116;28;19924;-72
2023/08/07 11:33:28;;;;;;;;;;;;;;;21.44;56.82;101863.56;5093020;28;19923;-71
2023/08/07 11:35:54;;;;;;;;;;;;;;;21.07;56.48;101855.28;5092803;28;19920;-71
2023/08/07 11:38:33;;;;;;;;;;;;;;;20.99;58.91;101855.41;5091940;28;20314;-71
2023/08/07 11:40:59;;;;;;;;;;;;;;;21.52;59.95;101866.19;5092360;28;20406;-71
2023/08/07 11:43:26;;;;;;;;;;;;;;;21.62;58.87;101864.03;5092015;28;20295;-71
2023/08/07 11:45:51;;;;;;;;;;;;;;;21.88;63.63;101865.41;5093026;28;19920;-71
2023/08/07 11:48:17;;;;;;;;;;;;;;;22.27;59.44;101857.94;5092255;28;19924;-71
2023/08/07 11:50:42;;;;;;;;;;;;;;;21.74;62.80;101863.56;5092522;28;20007;-71
2023/08/07 11:53:07;;;;;;;;;;;;;;;21.32;68.19;101868.59;5091919;28;19943;-71
2023/08/07 11:55:33;;;;;;;;;;;;;;;21.39;69.89;101866.81;5092628;28;20283;-71
2023/08/07 11:57:59;;;;;;;;;;;;;;;21.60;69.04;101866.09;5092648;28;19950;-71
2023/08/07 12:00:26;;;;;;;;;;;;;;;22.20;61.93;101866.00;5092200;28;19916;-72
2023/08/07 12:02:51;;;;;;;;;;;;;;;22.56;60.65;101865.16;5092339;28;20380;-71
2023/08/07 12:05:17;;;;;;;;;;;;;;;21.98;54.99;101865.13;5092017;28;19935;-71
2023/08/07 12:07:42;;;;;;;;;;;;;;;22.00;58.13;101857.63;5092458;28;20360;-71
2023/08/07 12:10:09;;;;;;;;;;;;;;;22.23;56.96;101864.75;5092159;28;19916;-72
2023/08/07 12:12:36;;;;;;;;;;;;;;;22.63;56.88;101866.06;5092251;28;20368;-71
2023/08/07 12:15:01;;;;;;;;;;;;;;;23.17;52.76;101870.06;5074199;28;20297;-71
2023/08/07 12:17:30;;;;;;;;;;;;;;;23.34;54.32;101856.19;5091686;28;19920;-71
2023/08/07 12:19:56;;;;;;;;;;;;;;;22.95;52.30;101858.41;5092034;28;19916;-71
2023/08/07 12:22:21;;;;;;;;;;;;;;;22.69;57.37;101870.72;5073709;28;20007;-71
2023/08/07 12:24:47;;;;;;;;;;;;;;;22.26;54.43;101859.81;5094989;28;19960;-71